sensor_id;sensor_type;location;lat;lon;timestamp;P1;durP1;ratioP1;P2;durP2;ratioP2
9914;SDS011;4996;48.746;9.174;2023-04-25T00:00:35;3.37;;;2.00;;
9914;SDS011;4996;48.746;9.174;2023-04-25T00:03:00;3.73;;;1.67;;
9914;SDS011;4996;48.746;9.174;2023-04-25T00:05:26;1.80;;;1.60;;
9914;SDS011;4996;48.746;9.174;2023-04-25T00:07:52;2.80;;;1.43;;
9914;SDS011;4996;48.746;9.174;2023-04-25T00:10:18;1.50;;;1.23;;
9914;SDS011;4996;48.746;9.174;2023-04-25T00:12:44;1.70;;;1.60;;
9914;SDS011;4996;48.746;9.174;2023-04-25T00:15:11;2.13;;;1.40;;
9914;SDS011;4996;48.746;9.174;2023-04-25T00:17:36;7.63;;;1.60;;
9914;SDS011;4996;48.746;9.174;2023-04-25T00:20:03;1.80;;;1.30;;
9914;SDS011;4996;48.746;9.174;2023-04-25T00:22:36;1.80;;;1.47;;
9914;SDS011;4996;48.746;9.174;2023-04-25T00:25:05;1.70;;;1.30;;
9914;SDS011;4996;48.746;9.174;2023-04-25T00:27:31;1.77;;;1.10;;
9914;SDS011;4996;48.746;9.174;2023-04-25T00:29:56;1.83;;;1.30;;
9914;SDS011;4996;48.746;9.174;2023-04-25T00:32:22;3.20;;;2.00;;
9914;SDS011;4996;48.746;9.174;2023-04-25T00:34:47;3.47;;;2.00;;
9914;SDS011;4996;48.746;9.174;2023-04-25T00:37:13;4.10;;;1.77;;
9914;SDS011;4996;48.746;9.174;2023-04-25T00:39:39;1.90;;;1.80;;
9914;SDS011;4996;48.746;9.174;2023-04-25T00:42:04;2.07;;;1.37;;
9914;SDS011;4996;48.746;9.174;2023-04-25T00:44:30;1.73;;;1.33;;
9914;SDS011;4996;48.746;9.174;2023-04-25T00:46:57;2.20;;;2.00;;
9914;SDS011;4996;48.746;9.174;2023-04-25T00:49:23;3.20;;;2.23;;
9914;SDS011;4996;48.746;9.174;2023-04-25T00:51:48;2.87;;;2.17;;
9914;SDS011;4996;48.746;9.174;2023-04-25T00:54:14;4.20;;;2.17;;
9914;SDS011;4996;48.746;9.174;2023-04-25T00:56:40;2.40;;;1.70;;
9914;SDS011;4996;48.746;9.174;2023-04-25T00:59:06;1.80;;;1.70;;
9914;SDS011;4996;48.746;9.174;2023-04-25T01:01:34;5.00;;;2.07;;
9914;SDS011;4996;48.746;9.174;2023-04-25T01:04:00;2.83;;;1.90;;
9914;SDS011;4996;48.746;9.174;2023-04-25T01:06:26;2.30;;;1.67;;
9914;SDS011;4996;48.746;9.174;2023-04-25T01:08:52;4.07;;;2.17;;
9914;SDS011;4996;48.746;9.174;2023-04-25T01:11:18;3.37;;;1.60;;
9914;SDS011;4996;48.746;9.174;2023-04-25T01:13:44;6.73;;;2.03;;
9914;SDS011;4996;48.746;9.174;2023-04-25T01:16:09;3.63;;;1.97;;
9914;SDS011;4996;48.746;9.174;2023-04-25T01:18:36;2.53;;;1.80;;
9914;SDS011;4996;48.746;9.174;2023-04-25T01:21:09;1.90;;;1.70;;
9914;SDS011;4996;48.746;9.174;2023-04-25T01:23:35;2.47;;;1.77;;
9914;SDS011;4996;48.746;9.174;2023-04-25T01:26:03;1.90;;;1.70;;
9914;SDS011;4996;48.746;9.174;2023-04-25T01:28:29;2.63;;;2.10;;
9914;SDS011;4996;48.746;9.174;2023-04-25T01:30:55;2.50;;;2.03;;
9914;SDS011;4996;48.746;9.174;2023-04-25T01:33:21;2.60;;;2.23;;
9914;SDS011;4996;48.746;9.174;2023-04-25T01:35:47;3.60;;;2.03;;
9914;SDS011;4996;48.746;9.174;2023-04-25T01:38:13;2.43;;;2.23;;
9914;SDS011;4996;48.746;9.174;2023-04-25T01:40:40;4.43;;;2.47;;
9914;SDS011;4996;48.746;9.174;2023-04-25T01:43:06;2.60;;;2.10;;
9914;SDS011;4996;48.746;9.174;2023-04-25T01:45:35;4.83;;;2.50;;
9914;SDS011;4996;48.746;9.174;2023-04-25T01:48:04;1.90;;;1.70;;
9914;SDS011;4996;48.746;9.174;2023-04-25T01:50:30;4.97;;;2.10;;
9914;SDS011;4996;48.746;9.174;2023-04-25T01:52:55;2.33;;;1.87;;
9914;SDS011;4996;48.746;9.174;2023-04-25T01:55:21;3.00;;;2.30;;
9914;SDS011;4996;48.746;9.174;2023-04-25T01:57:47;5.97;;;2.50;;
9914;SDS011;4996;48.746;9.174;2023-04-25T02:00:12;3.20;;;2.77;;
9914;SDS011;4996;48.746;9.174;2023-04-25T02:02:38;3.60;;;2.20;;
9914;SDS011;4996;48.746;9.174;2023-04-25T02:05:04;4.00;;;2.20;;
9914;SDS011;4996;48.746;9.174;2023-04-25T02:07:30;6.30;;;2.40;;
9914;SDS011;4996;48.746;9.174;2023-04-25T02:09:56;3.10;;;2.20;;
9914;SDS011;4996;48.746;9.174;2023-04-25T02:12:22;4.27;;;2.20;;
9914;SDS011;4996;48.746;9.174;2023-04-25T02:14:47;2.63;;;2.10;;
9914;SDS011;4996;48.746;9.174;2023-04-25T02:17:13;2.20;;;1.90;;
9914;SDS011;4996;48.746;9.174;2023-04-25T02:19:38;3.43;;;2.40;;
9914;SDS011;4996;48.746;9.174;2023-04-25T02:22:04;1.97;;;1.53;;
9914;SDS011;4996;48.746;9.174;2023-04-25T02:24:30;2.23;;;1.97;;
9914;SDS011;4996;48.746;9.174;2023-04-25T02:26:56;3.50;;;2.10;;
9914;SDS011;4996;48.746;9.174;2023-04-25T02:29:22;3.13;;;1.80;;
9914;SDS011;4996;48.746;9.174;2023-04-25T02:31:48;1.90;;;1.70;;
9914;SDS011;4996;48.746;9.174;2023-04-25T02:34:13;3.83;;;1.90;;
9914;SDS011;4996;48.746;9.174;2023-04-25T02:36:39;1.73;;;1.50;;
9914;SDS011;4996;48.746;9.174;2023-04-25T02:39:04;4.40;;;2.10;;
9914;SDS011;4996;48.746;9.174;2023-04-25T02:41:30;2.30;;;1.50;;
9914;SDS011;4996;48.746;9.174;2023-04-25T02:43:55;2.23;;;1.60;;
9914;SDS011;4996;48.746;9.174;2023-04-25T02:46:21;1.87;;;1.40;;
9914;SDS011;4996;48.746;9.174;2023-04-25T02:48:46;1.40;;;1.30;;
9914;SDS011;4996;48.746;9.174;2023-04-25T02:51:12;3.07;;;1.50;;
9914;SDS011;4996;48.746;9.174;2023-04-25T02:53:38;2.00;;;1.33;;
9914;SDS011;4996;48.746;9.174;2023-04-25T02:56:04;2.67;;;1.80;;
9914;SDS011;4996;48.746;9.174;2023-04-25T02:58:30;2.10;;;1.50;;
9914;SDS011;4996;48.746;9.174;2023-04-25T03:00:55;3.23;;;2.00;;
9914;SDS011;4996;48.746;9.174;2023-04-25T03:03:21;1.97;;;1.83;;
9914;SDS011;4996;48.746;9.174;2023-04-25T03:05:48;3.30;;;1.70;;
9914;SDS011;4996;48.746;9.174;2023-04-25T03:08:15;2.47;;;1.70;;
9914;SDS011;4996;48.746;9.174;2023-04-25T03:10:41;2.50;;;1.60;;
9914;SDS011;4996;48.746;9.174;2023-04-25T03:13:06;2.70;;;2.30;;
9914;SDS011;4996;48.746;9.174;2023-04-25T03:15:32;3.23;;;2.33;;
9914;SDS011;4996;48.746;9.174;2023-04-25T03:17:58;2.00;;;1.40;;
9914;SDS011;4996;48.746;9.174;2023-04-25T03:20:23;8.80;;;1.80;;
9914;SDS011;4996;48.746;9.174;2023-04-25T03:22:49;2.97;;;2.40;;
9914;SDS011;4996;48.746;9.174;2023-04-25T03:25:15;2.47;;;2.10;;
9914;SDS011;4996;48.746;9.174;2023-04-25T03:27:40;3.30;;;1.90;;
9914;SDS011;4996;48.746;9.174;2023-04-25T03:30:06;2.60;;;2.10;;
9914;SDS011;4996;48.746;9.174;2023-04-25T03:32:32;2.63;;;1.83;;
9914;SDS011;4996;48.746;9.174;2023-04-25T03:34:58;2.43;;;2.13;;
9914;SDS011;4996;48.746;9.174;2023-04-25T03:37:24;2.30;;;2.00;;
9914;SDS011;4996;48.746;9.174;2023-04-25T03:39:49;2.80;;;1.80;;
9914;SDS011;4996;48.746;9.174;2023-04-25T03:42:15;2.00;;;1.80;;
9914;SDS011;4996;48.746;9.174;2023-04-25T03:44:40;5.60;;;2.47;;
9914;SDS011;4996;48.746;9.174;2023-04-25T03:47:06;3.20;;;2.23;;
9914;SDS011;4996;48.746;9.174;2023-04-25T03:49:32;4.03;;;2.20;;
9914;SDS011;4996;48.746;9.174;2023-04-25T03:51:57;3.03;;;1.70;;
9914;SDS011;4996;48.746;9.174;2023-04-25T03:54:23;3.10;;;2.00;;
9914;SDS011;4996;48.746;9.174;2023-04-25T03:56:48;3.00;;;2.17;;
9914;SDS011;4996;48.746;9.174;2023-04-25T03:59:14;2.70;;;1.93;;
9914;SDS011;4996;48.746;9.174;2023-04-25T04:01:39;2.63;;;1.60;;
9914;SDS011;4996;48.746;9.174;2023-04-25T04:04:05;2.90;;;2.27;;
9914;SDS011;4996;48.746;9.174;2023-04-25T04:06:30;6.73;;;2.60;;
9914;SDS011;4996;48.746;9.174;2023-04-25T04:08:56;3.03;;;2.30;;
9914;SDS011;4996;48.746;9.174;2023-04-25T04:11:21;2.30;;;2.10;;
9914;SDS011;4996;48.746;9.174;2023-04-25T04:13:47;6.10;;;2.73;;
9914;SDS011;4996;48.746;9.174;2023-04-25T04:16:12;4.17;;;2.43;;
9914;SDS011;4996;48.746;9.174;2023-04-25T04:18:38;4.70;;;2.57;;
9914;SDS011;4996;48.746;9.174;2023-04-25T04:21:03;4.43;;;2.73;;
9914;SDS011;4996;48.746;9.174;2023-04-25T04:23:29;3.23;;;2.33;;
9914;SDS011;4996;48.746;9.174;2023-04-25T04:25:55;4.60;;;2.50;;
9914;SDS011;4996;48.746;9.174;2023-04-25T04:28:21;2.27;;;1.97;;
9914;SDS011;4996;48.746;9.174;2023-04-25T04:30:46;4.30;;;2.63;;
9914;SDS011;4996;48.746;9.174;2023-04-25T04:33:12;3.33;;;2.27;;
9914;SDS011;4996;48.746;9.174;2023-04-25T04:35:40;12.87;;;6.20;;
9914;SDS011;4996;48.746;9.174;2023-04-25T04:38:06;5.73;;;2.97;;
9914;SDS011;4996;48.746;9.174;2023-04-25T04:40:32;3.10;;;2.57;;
9914;SDS011;4996;48.746;9.174;2023-04-25T04:42:57;3.73;;;3.13;;
9914;SDS011;4996;48.746;9.174;2023-04-25T04:45:23;3.83;;;2.23;;
9914;SDS011;4996;48.746;9.174;2023-04-25T04:47:49;3.13;;;2.83;;
9914;SDS011;4996;48.746;9.174;2023-04-25T04:50:15;3.07;;;1.90;;
9914;SDS011;4996;48.746;9.174;2023-04-25T04:52:41;3.37;;;2.33;;
9914;SDS011;4996;48.746;9.174;2023-04-25T04:55:07;5.00;;;2.87;;
9914;SDS011;4996;48.746;9.174;2023-04-25T04:57:33;4.60;;;2.60;;
9914;SDS011;4996;48.746;9.174;2023-04-25T04:59:59;4.33;;;2.70;;
9914;SDS011;4996;48.746;9.174;2023-04-25T05:02:26;3.03;;;2.57;;
9914;SDS011;4996;48.746;9.174;2023-04-25T05:04:52;2.70;;;2.10;;
9914;SDS011;4996;48.746;9.174;2023-04-25T05:07:18;4.40;;;2.73;;
9914;SDS011;4996;48.746;9.174;2023-04-25T05:09:44;4.50;;;2.23;;
9914;SDS011;4996;48.746;9.174;2023-04-25T05:12:09;4.00;;;2.90;;
9914;SDS011;4996;48.746;9.174;2023-04-25T05:14:35;4.30;;;2.70;;
9914;SDS011;4996;48.746;9.174;2023-04-25T05:17:01;3.07;;;2.40;;
9914;SDS011;4996;48.746;9.174;2023-04-25T05:19:29;2.63;;;2.43;;
9914;SDS011;4996;48.746;9.174;2023-04-25T05:21:55;3.23;;;2.70;;
9914;SDS011;4996;48.746;9.174;2023-04-25T05:24:20;4.83;;;3.10;;
9914;SDS011;4996;48.746;9.174;2023-04-25T05:26:46;3.40;;;2.40;;
9914;SDS011;4996;48.746;9.174;2023-04-25T05:29:11;5.03;;;3.20;;
9914;SDS011;4996;48.746;9.174;2023-04-25T05:31:37;4.40;;;3.10;;
9914;SDS011;4996;48.746;9.174;2023-04-25T05:34:02;3.70;;;2.90;;
9914;SDS011;4996;48.746;9.174;2023-04-25T05:36:28;3.20;;;2.63;;
9914;SDS011;4996;48.746;9.174;2023-04-25T05:38:53;2.67;;;2.43;;
9914;SDS011;4996;48.746;9.174;2023-04-25T05:41:19;6.10;;;2.97;;
9914;SDS011;4996;48.746;9.174;2023-04-25T05:43:45;4.53;;;2.73;;
9914;SDS011;4996;48.746;9.174;2023-04-25T05:46:13;3.20;;;2.90;;
9914;SDS011;4996;48.746;9.174;2023-04-25T05:48:39;6.63;;;3.00;;
9914;SDS011;4996;48.746;9.174;2023-04-25T05:51:04;4.17;;;2.73;;
9914;SDS011;4996;48.746;9.174;2023-04-25T05:53:30;7.13;;;3.17;;
9914;SDS011;4996;48.746;9.174;2023-04-25T05:55:56;3.20;;;2.80;;
9914;SDS011;4996;48.746;9.174;2023-04-25T05:58:21;8.37;;;2.37;;
9914;SDS011;4996;48.746;9.174;2023-04-25T06:00:47;9.33;;;2.90;;
9914;SDS011;4996;48.746;9.174;2023-04-25T06:03:13;3.03;;;2.60;;
9914;SDS011;4996;48.746;9.174;2023-04-25T06:05:41;3.20;;;2.80;;
9914;SDS011;4996;48.746;9.174;2023-04-25T06:08:07;3.60;;;2.40;;
9914;SDS011;4996;48.746;9.174;2023-04-25T06:10:32;3.10;;;2.43;;
9914;SDS011;4996;48.746;9.174;2023-04-25T06:12:58;3.40;;;2.70;;
9914;SDS011;4996;48.746;9.174;2023-04-25T06:15:23;3.50;;;2.00;;
9914;SDS011;4996;48.746;9.174;2023-04-25T06:17:49;2.70;;;2.50;;
9914;SDS011;4996;48.746;9.174;2023-04-25T06:20:14;3.00;;;2.53;;
9914;SDS011;4996;48.746;9.174;2023-04-25T06:22:40;4.33;;;3.27;;
9914;SDS011;4996;48.746;9.174;2023-04-25T06:25:06;2.57;;;2.23;;
9914;SDS011;4996;48.746;9.174;2023-04-25T06:27:32;4.20;;;3.23;;
9914;SDS011;4996;48.746;9.174;2023-04-25T06:29:58;3.70;;;3.07;;
9914;SDS011;4996;48.746;9.174;2023-04-25T06:32:24;2.20;;;2.00;;
9914;SDS011;4996;48.746;9.174;2023-04-25T06:34:50;3.50;;;2.70;;
9914;SDS011;4996;48.746;9.174;2023-04-25T06:37:15;3.00;;;2.80;;
9914;SDS011;4996;48.746;9.174;2023-04-25T06:39:41;4.90;;;2.50;;
9914;SDS011;4996;48.746;9.174;2023-04-25T06:42:06;2.90;;;2.60;;
9914;SDS011;4996;48.746;9.174;2023-04-25T06:44:32;3.17;;;2.30;;
9914;SDS011;4996;48.746;9.174;2023-04-25T06:46:57;6.77;;;2.83;;
9914;SDS011;4996;48.746;9.174;2023-04-25T06:49:23;5.30;;;3.40;;
9914;SDS011;4996;48.746;9.174;2023-04-25T06:51:48;4.13;;;2.90;;
9914;SDS011;4996;48.746;9.174;2023-04-25T06:54:14;2.67;;;2.17;;
9914;SDS011;4996;48.746;9.174;2023-04-25T06:56:39;3.20;;;2.53;;
9914;SDS011;4996;48.746;9.174;2023-04-25T06:59:06;3.90;;;2.80;;
9914;SDS011;4996;48.746;9.174;2023-04-25T07:01:31;3.13;;;2.70;;
9914;SDS011;4996;48.746;9.174;2023-04-25T07:03:57;5.00;;;2.87;;
9914;SDS011;4996;48.746;9.174;2023-04-25T07:06:22;3.70;;;2.60;;
9914;SDS011;4996;48.746;9.174;2023-04-25T07:08:48;2.27;;;1.93;;
9914;SDS011;4996;48.746;9.174;2023-04-25T07:11:13;5.53;;;2.40;;
9914;SDS011;4996;48.746;9.174;2023-04-25T07:13:39;2.70;;;2.30;;
9914;SDS011;4996;48.746;9.174;2023-04-25T07:16:04;4.70;;;2.70;;
9914;SDS011;4996;48.746;9.174;2023-04-25T07:18:30;3.17;;;2.73;;
9914;SDS011;4996;48.746;9.174;2023-04-25T07:20:55;5.30;;;3.70;;
9914;SDS011;4996;48.746;9.174;2023-04-25T07:23:21;3.73;;;2.63;;
9914;SDS011;4996;48.746;9.174;2023-04-25T07:25:47;4.67;;;3.30;;
9914;SDS011;4996;48.746;9.174;2023-04-25T07:28:12;4.57;;;3.60;;
9914;SDS011;4996;48.746;9.174;2023-04-25T07:30:38;3.43;;;3.13;;
9914;SDS011;4996;48.746;9.174;2023-04-25T07:33:03;3.70;;;2.90;;
9914;SDS011;4996;48.746;9.174;2023-04-25T07:35:29;5.60;;;3.73;;
9914;SDS011;4996;48.746;9.174;2023-04-25T07:37:54;3.47;;;2.93;;
9914;SDS011;4996;48.746;9.174;2023-04-25T07:40:20;4.73;;;3.50;;
9914;SDS011;4996;48.746;9.174;2023-04-25T07:42:46;4.93;;;3.43;;
9914;SDS011;4996;48.746;9.174;2023-04-25T07:45:12;5.07;;;4.40;;
9914;SDS011;4996;48.746;9.174;2023-04-25T07:47:37;4.67;;;3.60;;
9914;SDS011;4996;48.746;9.174;2023-04-25T07:50:03;4.40;;;3.70;;
9914;SDS011;4996;48.746;9.174;2023-04-25T07:52:29;5.87;;;3.53;;
9914;SDS011;4996;48.746;9.174;2023-04-25T07:54:54;6.90;;;4.10;;
9914;SDS011;4996;48.746;9.174;2023-04-25T07:57:20;10.27;;;4.70;;
9914;SDS011;4996;48.746;9.174;2023-04-25T07:59:45;5.97;;;3.70;;
9914;SDS011;4996;48.746;9.174;2023-04-25T08:02:11;5.90;;;3.17;;
9914;SDS011;4996;48.746;9.174;2023-04-25T08:04:36;4.80;;;3.47;;
9914;SDS011;4996;48.746;9.174;2023-04-25T08:07:02;4.90;;;3.57;;
9914;SDS011;4996;48.746;9.174;2023-04-25T08:09:28;5.40;;;3.57;;
9914;SDS011;4996;48.746;9.174;2023-04-25T08:11:54;7.53;;;4.03;;
9914;SDS011;4996;48.746;9.174;2023-04-25T08:14:19;5.03;;;3.43;;
9914;SDS011;4996;48.746;9.174;2023-04-25T08:16:45;4.90;;;4.20;;
9914;SDS011;4996;48.746;9.174;2023-04-25T08:19:10;5.50;;;3.50;;
9914;SDS011;4996;48.746;9.174;2023-04-25T08:21:36;5.77;;;3.30;;
9914;SDS011;4996;48.746;9.174;2023-04-25T08:24:02;9.23;;;4.17;;
9914;SDS011;4996;48.746;9.174;2023-04-25T08:26:28;3.97;;;3.57;;
9914;SDS011;4996;48.746;9.174;2023-04-25T08:28:54;5.83;;;3.97;;
9914;SDS011;4996;48.746;9.174;2023-04-25T08:31:19;4.20;;;3.57;;
9914;SDS011;4996;48.746;9.174;2023-04-25T08:33:45;5.43;;;3.40;;
9914;SDS011;4996;48.746;9.174;2023-04-25T08:36:11;5.87;;;4.07;;
9914;SDS011;4996;48.746;9.174;2023-04-25T08:38:37;4.47;;;3.13;;
9914;SDS011;4996;48.746;9.174;2023-04-25T08:41:02;7.03;;;4.03;;
9914;SDS011;4996;48.746;9.174;2023-04-25T08:43:30;3.87;;;2.63;;
9914;SDS011;4996;48.746;9.174;2023-04-25T08:45:59;10.23;;;4.77;;
9914;SDS011;4996;48.746;9.174;2023-04-25T08:48:28;3.30;;;2.90;;
9914;SDS011;4996;48.746;9.174;2023-04-25T08:50:57;6.53;;;3.83;;
9914;SDS011;4996;48.746;9.174;2023-04-25T08:53:27;4.47;;;3.50;;
9914;SDS011;4996;48.746;9.174;2023-04-25T08:55:54;3.57;;;2.80;;
9914;SDS011;4996;48.746;9.174;2023-04-25T08:58:22;4.53;;;4.00;;
9914;SDS011;4996;48.746;9.174;2023-04-25T09:00:48;6.97;;;3.70;;
9914;SDS011;4996;48.746;9.174;2023-04-25T09:03:15;8.10;;;4.97;;
9914;SDS011;4996;48.746;9.174;2023-04-25T09:05:41;5.50;;;3.40;;
9914;SDS011;4996;48.746;9.174;2023-04-25T09:08:07;3.53;;;3.23;;
9914;SDS011;4996;48.746;9.174;2023-04-25T09:10:33;7.80;;;4.70;;
9914;SDS011;4996;48.746;9.174;2023-04-25T09:13:01;5.30;;;4.27;;
9914;SDS011;4996;48.746;9.174;2023-04-25T09:15:51;5.73;;;4.40;;
9914;SDS011;4996;48.746;9.174;2023-04-25T09:18:25;6.53;;;4.17;;
9914;SDS011;4996;48.746;9.174;2023-04-25T09:20:58;5.80;;;2.83;;
9914;SDS011;4996;48.746;9.174;2023-04-25T09:23:48;5.87;;;4.00;;
9914;SDS011;4996;48.746;9.174;2023-04-25T09:26:17;6.33;;;4.47;;
9914;SDS011;4996;48.746;9.174;2023-04-25T09:28:44;5.50;;;4.00;;
9914;SDS011;4996;48.746;9.174;2023-04-25T09:31:10;5.07;;;3.80;;
9914;SDS011;4996;48.746;9.174;2023-04-25T09:33:36;6.47;;;4.50;;
9914;SDS011;4996;48.746;9.174;2023-04-25T09:36:06;4.33;;;3.93;;
9914;SDS011;4996;48.746;9.174;2023-04-25T09:38:45;6.00;;;3.40;;
9914;SDS011;4996;48.746;9.174;2023-04-25T09:41:11;7.03;;;3.60;;
9914;SDS011;4996;48.746;9.174;2023-04-25T09:43:38;3.63;;;3.30;;
9914;SDS011;4996;48.746;9.174;2023-04-25T09:46:08;4.50;;;3.20;;
9914;SDS011;4996;48.746;9.174;2023-04-25T09:48:35;4.53;;;3.30;;
9914;SDS011;4996;48.746;9.174;2023-04-25T09:53:30;2.60;;;2.17;;
9914;SDS011;4996;48.746;9.174;2023-04-25T09:55:57;5.07;;;2.53;;
9914;SDS011;4996;48.746;9.174;2023-04-25T09:58:25;3.13;;;2.57;;
9914;SDS011;4996;48.746;9.174;2023-04-25T10:00:54;4.70;;;3.07;;
9914;SDS011;4996;48.746;9.174;2023-04-25T10:03:31;5.77;;;3.30;;
9914;SDS011;4996;48.746;9.174;2023-04-25T10:06:02;5.10;;;3.00;;
9914;SDS011;4996;48.746;9.174;2023-04-25T10:08:32;4.33;;;2.73;;
9914;SDS011;4996;48.746;9.174;2023-04-25T10:11:02;4.77;;;3.63;;
9914;SDS011;4996;48.746;9.174;2023-04-25T10:13:32;2.40;;;2.20;;
9914;SDS011;4996;48.746;9.174;2023-04-25T10:15:59;2.30;;;2.00;;
9914;SDS011;4996;48.746;9.174;2023-04-25T10:18:26;3.30;;;1.60;;
9914;SDS011;4996;48.746;9.174;2023-04-25T10:20:56;1.90;;;1.60;;
9914;SDS011;4996;48.746;9.174;2023-04-25T10:23:24;2.13;;;1.60;;
9914;SDS011;4996;48.746;9.174;2023-04-25T10:25:51;1.90;;;1.40;;
9914;SDS011;4996;48.746;9.174;2023-04-25T10:28:18;2.17;;;1.50;;
9914;SDS011;4996;48.746;9.174;2023-04-25T10:30:56;1.50;;;1.33;;
9914;SDS011;4996;48.746;9.174;2023-04-25T10:33:38;1.20;;;0.90;;
9914;SDS011;4996;48.746;9.174;2023-04-25T10:36:12;0.97;;;0.80;;
9914;SDS011;4996;48.746;9.174;2023-04-25T10:38:48;1.40;;;0.77;;
9914;SDS011;4996;48.746;9.174;2023-04-25T10:41:17;1.37;;;1.27;;
9914;SDS011;4996;48.746;9.174;2023-04-25T10:43:44;1.83;;;1.50;;
9914;SDS011;4996;48.746;9.174;2023-04-25T10:46:23;1.93;;;1.83;;
9914;SDS011;4996;48.746;9.174;2023-04-25T10:48:58;1.10;;;0.93;;
9914;SDS011;4996;48.746;9.174;2023-04-25T10:51:26;1.20;;;1.07;;
9914;SDS011;4996;48.746;9.174;2023-04-25T10:54:04;1.53;;;1.10;;
9914;SDS011;4996;48.746;9.174;2023-04-25T10:56:36;2.57;;;1.27;;
9914;SDS011;4996;48.746;9.174;2023-04-25T11:04:18;2.77;;;2.00;;
9914;SDS011;4996;48.746;9.174;2023-04-25T11:06:58;2.40;;;1.80;;
9914;SDS011;4996;48.746;9.174;2023-04-25T11:09:45;2.40;;;2.13;;
9914;SDS011;4996;48.746;9.174;2023-04-25T11:12:11;3.80;;;2.87;;
9914;SDS011;4996;48.746;9.174;2023-04-25T11:14:37;3.17;;;2.80;;
9914;SDS011;4996;48.746;9.174;2023-04-25T11:17:03;1.97;;;1.77;;
9914;SDS011;4996;48.746;9.174;2023-04-25T11:19:28;2.97;;;1.83;;
9914;SDS011;4996;48.746;9.174;2023-04-25T11:21:55;2.03;;;1.80;;
9914;SDS011;4996;48.746;9.174;2023-04-25T11:24:25;2.67;;;2.47;;
9914;SDS011;4996;48.746;9.174;2023-04-25T11:26:54;2.93;;;2.30;;
9914;SDS011;4996;48.746;9.174;2023-04-25T11:29:26;3.37;;;2.10;;
9914;SDS011;4996;48.746;9.174;2023-04-25T11:31:52;3.10;;;2.30;;
9914;SDS011;4996;48.746;9.174;2023-04-25T11:34:18;4.63;;;2.77;;
9914;SDS011;4996;48.746;9.174;2023-04-25T11:36:44;2.57;;;2.37;;
9914;SDS011;4996;48.746;9.174;2023-04-25T11:39:10;3.60;;;2.30;;
9914;SDS011;4996;48.746;9.174;2023-04-25T11:41:40;2.30;;;2.00;;
9914;SDS011;4996;48.746;9.174;2023-04-25T11:44:07;2.73;;;2.00;;
9914;SDS011;4996;48.746;9.174;2023-04-25T11:46:35;1.93;;;1.80;;
9914;SDS011;4996;48.746;9.174;2023-04-25T11:49:01;4.57;;;3.07;;
9914;SDS011;4996;48.746;9.174;2023-04-25T11:51:26;9.70;;;4.43;;
9914;SDS011;4996;48.746;9.174;2023-04-25T11:53:52;7.73;;;2.63;;
9914;SDS011;4996;48.746;9.174;2023-04-25T11:56:18;3.00;;;2.03;;
9914;SDS011;4996;48.746;9.174;2023-04-25T12:01:32;3.30;;;2.53;;
9914;SDS011;4996;48.746;9.174;2023-04-25T12:04:09;3.70;;;3.27;;
9914;SDS011;4996;48.746;9.174;2023-04-25T12:06:39;5.93;;;3.80;;
9914;SDS011;4996;48.746;9.174;2023-04-25T12:09:10;6.63;;;4.20;;
9914;SDS011;4996;48.746;9.174;2023-04-25T12:11:40;3.60;;;3.07;;
9914;SDS011;4996;48.746;9.174;2023-04-25T12:14:07;7.80;;;3.83;;
9914;SDS011;4996;48.746;9.174;2023-04-25T12:16:40;3.07;;;2.77;;
9914;SDS011;4996;48.746;9.174;2023-04-25T12:19:06;7.20;;;3.67;;
9914;SDS011;4996;48.746;9.174;2023-04-25T12:21:32;6.53;;;3.93;;
9914;SDS011;4996;48.746;9.174;2023-04-25T12:24:16;4.67;;;3.30;;
9914;SDS011;4996;48.746;9.174;2023-04-25T12:29:25;3.70;;;2.73;;
9914;SDS011;4996;48.746;9.174;2023-04-25T12:31:52;4.17;;;2.00;;
9914;SDS011;4996;48.746;9.174;2023-04-25T12:34:19;3.70;;;2.70;;
9914;SDS011;4996;48.746;9.174;2023-04-25T12:36:46;4.00;;;2.90;;
9914;SDS011;4996;48.746;9.174;2023-04-25T12:39:22;4.77;;;3.77;;
9914;SDS011;4996;48.746;9.174;2023-04-25T12:41:50;11.87;;;4.30;;
9914;SDS011;4996;48.746;9.174;2023-04-25T12:44:17;5.87;;;3.93;;
9914;SDS011;4996;48.746;9.174;2023-04-25T12:46:42;6.83;;;3.80;;
9914;SDS011;4996;48.746;9.174;2023-04-25T12:49:08;8.13;;;4.73;;
9914;SDS011;4996;48.746;9.174;2023-04-25T12:51:34;7.00;;;5.00;;
9914;SDS011;4996;48.746;9.174;2023-04-25T12:54:01;8.40;;;5.67;;
9914;SDS011;4996;48.746;9.174;2023-04-25T12:56:31;7.50;;;5.23;;
9914;SDS011;4996;48.746;9.174;2023-04-25T12:58:56;11.20;;;5.40;;
9914;SDS011;4996;48.746;9.174;2023-04-25T13:01:22;8.93;;;4.57;;
9914;SDS011;4996;48.746;9.174;2023-04-25T13:03:48;6.93;;;4.90;;
9914;SDS011;4996;48.746;9.174;2023-04-25T13:06:14;6.60;;;4.40;;
9914;SDS011;4996;48.746;9.174;2023-04-25T13:08:41;8.30;;;4.83;;
9914;SDS011;4996;48.746;9.174;2023-04-25T13:11:07;6.60;;;4.83;;
9914;SDS011;4996;48.746;9.174;2023-04-25T13:13:33;6.13;;;4.10;;
9914;SDS011;4996;48.746;9.174;2023-04-25T13:16:00;5.33;;;4.83;;
9914;SDS011;4996;48.746;9.174;2023-04-25T13:18:27;5.53;;;3.93;;
9914;SDS011;4996;48.746;9.174;2023-04-25T13:20:53;17.37;;;9.50;;
9914;SDS011;4996;48.746;9.174;2023-04-25T13:23:19;11.00;;;6.30;;
9914;SDS011;4996;48.746;9.174;2023-04-25T13:25:45;8.33;;;4.43;;
9914;SDS011;4996;48.746;9.174;2023-04-25T13:28:11;5.13;;;4.23;;
9914;SDS011;4996;48.746;9.174;2023-04-25T13:30:37;5.73;;;4.77;;
9914;SDS011;4996;48.746;9.174;2023-04-25T13:33:02;5.77;;;4.67;;
9914;SDS011;4996;48.746;9.174;2023-04-25T13:35:29;6.17;;;4.90;;
9914;SDS011;4996;48.746;9.174;2023-04-25T13:37:55;6.10;;;4.77;;
9914;SDS011;4996;48.746;9.174;2023-04-25T13:40:21;10.50;;;5.27;;
9914;SDS011;4996;48.746;9.174;2023-04-25T13:42:47;6.77;;;4.60;;
9914;SDS011;4996;48.746;9.174;2023-04-25T13:45:12;9.93;;;5.33;;
9914;SDS011;4996;48.746;9.174;2023-04-25T13:47:38;6.50;;;5.30;;
9914;SDS011;4996;48.746;9.174;2023-04-25T13:50:04;5.70;;;4.80;;
9914;SDS011;4996;48.746;9.174;2023-04-25T13:52:30;7.17;;;5.17;;
9914;SDS011;4996;48.746;9.174;2023-04-25T13:54:56;8.73;;;5.47;;
9914;SDS011;4996;48.746;9.174;2023-04-25T13:57:22;6.53;;;5.10;;
9914;SDS011;4996;48.746;9.174;2023-04-25T13:59:48;11.73;;;6.13;;
9914;SDS011;4996;48.746;9.174;2023-04-25T14:02:13;8.67;;;6.23;;
9914;SDS011;4996;48.746;9.174;2023-04-25T14:04:39;10.33;;;6.83;;
9914;SDS011;4996;48.746;9.174;2023-04-25T14:07:05;9.17;;;6.33;;
9914;SDS011;4996;48.746;9.174;2023-04-25T14:09:31;10.03;;;7.60;;
9914;SDS011;4996;48.746;9.174;2023-04-25T14:11:56;10.77;;;7.90;;
9914;SDS011;4996;48.746;9.174;2023-04-25T14:14:22;11.20;;;6.33;;
9914;SDS011;4996;48.746;9.174;2023-04-25T14:16:48;6.77;;;5.70;;
9914;SDS011;4996;48.746;9.174;2023-04-25T14:19:15;11.40;;;6.20;;
9914;SDS011;4996;48.746;9.174;2023-04-25T14:21:41;7.00;;;6.03;;
9914;SDS011;4996;48.746;9.174;2023-04-25T14:24:07;7.63;;;5.77;;
9914;SDS011;4996;48.746;9.174;2023-04-25T14:26:33;6.20;;;4.83;;
9914;SDS011;4996;48.746;9.174;2023-04-25T14:29:03;9.27;;;5.70;;
9914;SDS011;4996;48.746;9.174;2023-04-25T14:31:30;7.60;;;6.70;;
9914;SDS011;4996;48.746;9.174;2023-04-25T14:33:56;6.80;;;6.10;;
9914;SDS011;4996;48.746;9.174;2023-04-25T14:36:21;7.73;;;5.57;;
9914;SDS011;4996;48.746;9.174;2023-04-25T14:38:46;9.30;;;5.80;;
9914;SDS011;4996;48.746;9.174;2023-04-25T14:41:12;6.03;;;5.20;;
9914;SDS011;4996;48.746;9.174;2023-04-25T14:43:38;11.10;;;5.37;;
9914;SDS011;4996;48.746;9.174;2023-04-25T14:46:05;6.77;;;5.63;;
9914;SDS011;4996;48.746;9.174;2023-04-25T14:48:31;9.50;;;4.67;;
9914;SDS011;4996;48.746;9.174;2023-04-25T14:50:57;5.37;;;4.57;;
9914;SDS011;4996;48.746;9.174;2023-04-25T14:53:22;4.67;;;4.20;;
9914;SDS011;4996;48.746;9.174;2023-04-25T14:55:48;5.83;;;3.87;;
9914;SDS011;4996;48.746;9.174;2023-04-25T14:58:14;8.03;;;4.13;;
9914;SDS011;4996;48.746;9.174;2023-04-25T15:00:40;5.80;;;4.23;;
9914;SDS011;4996;48.746;9.174;2023-04-25T15:03:05;5.00;;;4.23;;
9914;SDS011;4996;48.746;9.174;2023-04-25T15:05:32;4.23;;;3.83;;
9914;SDS011;4996;48.746;9.174;2023-04-25T15:07:59;6.50;;;4.40;;
9914;SDS011;4996;48.746;9.174;2023-04-25T15:10:25;4.77;;;3.40;;
9914;SDS011;4996;48.746;9.174;2023-04-25T15:12:51;7.53;;;3.83;;
9914;SDS011;4996;48.746;9.174;2023-04-25T15:15:18;5.77;;;4.10;;
9914;SDS011;4996;48.746;9.174;2023-04-25T15:17:44;5.83;;;3.77;;
9914;SDS011;4996;48.746;9.174;2023-04-25T15:20:10;11.00;;;4.07;;
9914;SDS011;4996;48.746;9.174;2023-04-25T15:22:38;6.60;;;4.57;;
9914;SDS011;4996;48.746;9.174;2023-04-25T15:25:05;5.00;;;4.50;;